sensor_id;sensor_type;location;lat;lon;timestamp;P1;durP1;ratioP1;P2;durP2;ratioP2
11877;SDS011;5998;42.676;23.268;2023-08-07T00:00:16;1.87;;;1.77;;
11877;SDS011;5998;42.676;23.268;2023-08-07T00:02:43;2.50;;;1.83;;
11877;SDS011;5998;42.676;23.268;2023-08-07T00:05:09;1.90;;;1.80;;
11877;SDS011;5998;42.676;23.268;2023-08-07T00:07:36;2.10;;;1.90;;
11877;SDS011;5998;42.676;23.268;2023-08-07T00:10:02;2.00;;;1.90;;
11877;SDS011;5998;42.676;23.268;2023-08-07T00:12:29;2.43;;;2.33;;
11877;SDS011;5998;42.676;23.268;2023-08-07T00:14:55;2.10;;;2.00;;
11877;SDS011;5998;42.676;23.268;2023-08-07T00:17:23;1.80;;;1.70;;
11877;SDS011;5998;42.676;23.268;2023-08-07T00:19:50;2.30;;;2.20;;
11877;SDS011;5998;42.676;23.268;2023-08-07T00:22:16;2.00;;;1.90;;
11877;SDS011;5998;42.676;23.268;2023-08-07T00:24:43;2.13;;;2.03;;
11877;SDS011;5998;42.676;23.268;2023-08-07T00:27:09;2.10;;;2.00;;
11877;SDS011;5998;42.676;23.268;2023-08-07T00:29:37;2.07;;;1.97;;
11877;SDS011;5998;42.676;23.268;2023-08-07T00:32:04;1.90;;;1.80;;
11877;SDS011;5998;42.676;23.268;2023-08-07T00:34:31;1.90;;;1.73;;
11877;SDS011;5998;42.676;23.268;2023-08-07T00:36:58;1.90;;;1.80;;
11877;SDS011;5998;42.676;23.268;2023-08-07T00:39:24;1.90;;;1.80;;
11877;SDS011;5998;42.676;23.268;2023-08-07T00:41:51;2.00;;;1.90;;
11877;SDS011;5998;42.676;23.268;2023-08-07T00:44:17;1.80;;;1.70;;
11877;SDS011;5998;42.676;23.268;2023-08-07T00:46:44;1.93;;;1.83;;
11877;SDS011;5998;42.676;23.268;2023-08-07T00:49:11;2.20;;;2.10;;
11877;SDS011;5998;42.676;23.268;2023-08-07T00:51:39;2.00;;;1.90;;
11877;SDS011;5998;42.676;23.268;2023-08-07T00:54:06;2.10;;;2.00;;
11877;SDS011;5998;42.676;23.268;2023-08-07T00:56:33;2.20;;;2.10;;
11877;SDS011;5998;42.676;23.268;2023-08-07T00:59:00;2.60;;;2.40;;
11877;SDS011;5998;42.676;23.268;2023-08-07T01:01:27;2.57;;;2.37;;
11877;SDS011;5998;42.676;23.268;2023-08-07T01:03:54;2.50;;;2.30;;
11877;SDS011;5998;42.676;23.268;2023-08-07T01:06:20;2.60;;;2.50;;
11877;SDS011;5998;42.676;23.268;2023-08-07T01:08:48;2.60;;;2.40;;
11877;SDS011;5998;42.676;23.268;2023-08-07T01:11:18;3.50;;;3.30;;
11877;SDS011;5998;42.676;23.268;2023-08-07T01:13:49;4.40;;;4.10;;
11877;SDS011;5998;42.676;23.268;2023-08-07T01:16:18;4.60;;;4.27;;
11877;SDS011;5998;42.676;23.268;2023-08-07T01:18:45;3.20;;;2.90;;
11877;SDS011;5998;42.676;23.268;2023-08-07T01:21:17;3.00;;;2.80;;
11877;SDS011;5998;42.676;23.268;2023-08-07T01:23:45;2.90;;;2.70;;
11877;SDS011;5998;42.676;23.268;2023-08-07T01:26:11;4.43;;;2.93;;
11877;SDS011;5998;42.676;23.268;2023-08-07T01:28:38;3.70;;;2.80;;
11877;SDS011;5998;42.676;23.268;2023-08-07T01:31:09;2.80;;;2.60;;
11877;SDS011;5998;42.676;23.268;2023-08-07T01:33:39;3.83;;;3.10;;
11877;SDS011;5998;42.676;23.268;2023-08-07T01:36:09;3.50;;;2.60;;
11877;SDS011;5998;42.676;23.268;2023-08-07T01:38:36;3.00;;;2.70;;
11877;SDS011;5998;42.676;23.268;2023-08-07T01:41:05;3.17;;;2.87;;
11877;SDS011;5998;42.676;23.268;2023-08-07T01:43:31;2.97;;;2.77;;
11877;SDS011;5998;42.676;23.268;2023-08-07T01:45:58;3.03;;;2.83;;
11877;SDS011;5998;42.676;23.268;2023-08-07T01:48:24;3.00;;;2.80;;
11877;SDS011;5998;42.676;23.268;2023-08-07T01:50:52;3.47;;;2.70;;
11877;SDS011;5998;42.676;23.268;2023-08-07T01:53:18;3.00;;;2.80;;
11877;SDS011;5998;42.676;23.268;2023-08-07T01:55:45;2.70;;;2.50;;
11877;SDS011;5998;42.676;23.268;2023-08-07T01:58:13;3.27;;;2.97;;
11877;SDS011;5998;42.676;23.268;2023-08-07T02:00:39;3.10;;;2.90;;
11877;SDS011;5998;42.676;23.268;2023-08-07T02:03:05;3.13;;;2.83;;
11877;SDS011;5998;42.676;23.268;2023-08-07T02:05:32;2.33;;;2.23;;
11877;SDS011;5998;42.676;23.268;2023-08-07T02:07:58;3.87;;;2.40;;
11877;SDS011;5998;42.676;23.268;2023-08-07T02:10:25;3.23;;;3.03;;
11877;SDS011;5998;42.676;23.268;2023-08-07T02:12:51;2.80;;;2.60;;
11877;SDS011;5998;42.676;23.268;2023-08-07T02:15:19;2.90;;;2.70;;
11877;SDS011;5998;42.676;23.268;2023-08-07T02:17:45;2.93;;;2.73;;
11877;SDS011;5998;42.676;23.268;2023-08-07T02:20:12;2.60;;;2.40;;
11877;SDS011;5998;42.676;23.268;2023-08-07T02:22:38;3.47;;;3.23;;
11877;SDS011;5998;42.676;23.268;2023-08-07T02:25:05;2.80;;;2.60;;
11877;SDS011;5998;42.676;23.268;2023-08-07T02:27:32;2.90;;;2.70;;
11877;SDS011;5998;42.676;23.268;2023-08-07T02:29:58;2.67;;;2.47;;
11877;SDS011;5998;42.676;23.268;2023-08-07T02:32:26;2.80;;;2.50;;
11877;SDS011;5998;42.676;23.268;2023-08-07T02:34:52;2.90;;;2.70;;
11877;SDS011;5998;42.676;23.268;2023-08-07T02:37:19;3.10;;;2.70;;
11877;SDS011;5998;42.676;23.268;2023-08-07T02:39:46;3.30;;;2.80;;
11877;SDS011;5998;42.676;23.268;2023-08-07T02:42:12;3.60;;;2.70;;
11877;SDS011;5998;42.676;23.268;2023-08-07T02:44:39;3.73;;;2.80;;
11877;SDS011;5998;42.676;23.268;2023-08-07T02:47:05;2.83;;;2.60;;
11877;SDS011;5998;42.676;23.268;2023-08-07T02:49:33;3.13;;;2.93;;
11877;SDS011;5998;42.676;23.268;2023-08-07T02:51:59;2.83;;;2.63;;
11877;SDS011;5998;42.676;23.268;2023-08-07T02:54:26;2.63;;;2.43;;
11877;SDS011;5998;42.676;23.268;2023-08-07T02:56:52;3.20;;;3.00;;
11877;SDS011;5998;42.676;23.268;2023-08-07T02:59:19;3.53;;;3.00;;
11877;SDS011;5998;42.676;23.268;2023-08-07T03:01:45;3.00;;;2.80;;
11877;SDS011;5998;42.676;23.268;2023-08-07T03:04:12;3.30;;;3.00;;
11877;SDS011;5998;42.676;23.268;2023-08-07T03:06:39;5.60;;;3.00;;
11877;SDS011;5998;42.676;23.268;2023-08-07T03:09:06;3.10;;;2.90;;
11877;SDS011;5998;42.676;23.268;2023-08-07T03:11:32;3.50;;;3.20;;
11877;SDS011;5998;42.676;23.268;2023-08-07T03:13:59;4.13;;;3.30;;
11877;SDS011;5998;42.676;23.268;2023-08-07T03:16:25;3.60;;;3.10;;
11877;SDS011;5998;42.676;23.268;2023-08-07T03:18:51;3.63;;;3.33;;
11877;SDS011;5998;42.676;23.268;2023-08-07T03:21:18;3.50;;;3.30;;
11877;SDS011;5998;42.676;23.268;2023-08-07T03:23:46;7.07;;;4.03;;
11877;SDS011;5998;42.676;23.268;2023-08-07T03:26:12;3.67;;;3.43;;
11877;SDS011;5998;42.676;23.268;2023-08-07T03:28:39;4.63;;;4.23;;
11877;SDS011;5998;42.676;23.268;2023-08-07T03:31:05;3.90;;;3.50;;
11877;SDS011;5998;42.676;23.268;2023-08-07T03:33:32;3.60;;;3.40;;
11877;SDS011;5998;42.676;23.268;2023-08-07T03:35:58;3.80;;;3.50;;
11877;SDS011;5998;42.676;23.268;2023-08-07T03:38:25;3.67;;;3.37;;
11877;SDS011;5998;42.676;23.268;2023-08-07T03:40:53;3.90;;;3.50;;
11877;SDS011;5998;42.676;23.268;2023-08-07T03:43:19;4.47;;;3.27;;
11877;SDS011;5998;42.676;23.268;2023-08-07T03:45:46;3.70;;;3.40;;
11877;SDS011;5998;42.676;23.268;2023-08-07T03:48:12;3.20;;;3.00;;
11877;SDS011;5998;42.676;23.268;2023-08-07T03:50:38;3.63;;;3.33;;
11877;SDS011;5998;42.676;23.268;2023-08-07T03:53:05;3.27;;;2.97;;
11877;SDS011;5998;42.676;23.268;2023-08-07T03:55:32;3.00;;;2.80;;
11877;SDS011;5998;42.676;23.268;2023-08-07T03:58:00;3.40;;;3.00;;
11877;SDS011;5998;42.676;23.268;2023-08-07T04:00:26;3.10;;;2.90;;
11877;SDS011;5998;42.676;23.268;2023-08-07T04:02:53;3.27;;;3.07;;
11877;SDS011;5998;42.676;23.268;2023-08-07T04:05:19;4.63;;;3.27;;
11877;SDS011;5998;42.676;23.268;2023-08-07T04:07:45;2.93;;;2.73;;
11877;SDS011;5998;42.676;23.268;2023-08-07T04:10:12;4.40;;;2.63;;
11877;SDS011;5998;42.676;23.268;2023-08-07T04:12:38;2.90;;;2.60;;
11877;SDS011;5998;42.676;23.268;2023-08-07T04:15:07;2.67;;;2.47;;
11877;SDS011;5998;42.676;23.268;2023-08-07T04:17:34;3.30;;;3.10;;
11877;SDS011;5998;42.676;23.268;2023-08-07T04:20:00;2.60;;;2.50;;
11877;SDS011;5998;42.676;23.268;2023-08-07T04:22:28;2.93;;;2.73;;
11877;SDS011;5998;42.676;23.268;2023-08-07T04:24:54;3.63;;;3.30;;
11877;SDS011;5998;42.676;23.268;2023-08-07T04:27:21;3.00;;;2.80;;
11877;SDS011;5998;42.676;23.268;2023-08-07T04:29:47;3.17;;;2.87;;
11877;SDS011;5998;42.676;23.268;2023-08-07T04:32:15;3.10;;;2.73;;
11877;SDS011;5998;42.676;23.268;2023-08-07T04:34:41;3.43;;;3.03;;
11877;SDS011;5998;42.676;23.268;2023-08-07T04:37:08;3.40;;;3.10;;
11877;SDS011;5998;42.676;23.268;2023-08-07T04:39:35;3.20;;;2.90;;
11877;SDS011;5998;42.676;23.268;2023-08-07T04:42:02;3.07;;;2.87;;
11877;SDS011;5998;42.676;23.268;2023-08-07T04:44:28;4.07;;;3.10;;
11877;SDS011;5998;42.676;23.268;2023-08-07T04:46:55;3.20;;;2.90;;
11877;SDS011;5998;42.676;23.268;2023-08-07T04:49:22;3.10;;;2.90;;
11877;SDS011;5998;42.676;23.268;2023-08-07T04:51:49;3.33;;;3.03;;
11877;SDS011;5998;42.676;23.268;2023-08-07T04:54:15;4.17;;;3.00;;
11877;SDS011;5998;42.676;23.268;2023-08-07T04:56:42;3.07;;;2.87;;
11877;SDS011;5998;42.676;23.268;2023-08-07T04:59:09;4.50;;;2.80;;
11877;SDS011;5998;42.676;23.268;2023-08-07T05:01:35;3.83;;;2.70;;
11877;SDS011;5998;42.676;23.268;2023-08-07T05:04:02;3.40;;;3.10;;
11877;SDS011;5998;42.676;23.268;2023-08-07T05:06:31;6.27;;;3.03;;
11877;SDS011;5998;42.676;23.268;2023-08-07T05:08:57;3.00;;;2.70;;
11877;SDS011;5998;42.676;23.268;2023-08-07T05:11:24;5.73;;;2.90;;
11877;SDS011;5998;42.676;23.268;2023-08-07T05:13:50;2.70;;;2.60;;
11877;SDS011;5998;42.676;23.268;2023-08-07T05:16:17;4.37;;;2.90;;
11877;SDS011;5998;42.676;23.268;2023-08-07T05:18:44;2.83;;;2.63;;
11877;SDS011;5998;42.676;23.268;2023-08-07T05:21:10;2.97;;;2.77;;
11877;SDS011;5998;42.676;23.268;2023-08-07T05:23:38;5.43;;;2.80;;
11877;SDS011;5998;42.676;23.268;2023-08-07T05:26:04;3.50;;;2.80;;
11877;SDS011;5998;42.676;23.268;2023-08-07T05:28:31;2.90;;;2.60;;
11877;SDS011;5998;42.676;23.268;2023-08-07T05:30:57;3.00;;;2.70;;
11877;SDS011;5998;42.676;23.268;2023-08-07T05:33:24;4.20;;;3.10;;
11877;SDS011;5998;42.676;23.268;2023-08-07T05:35:50;3.30;;;3.00;;
11877;SDS011;5998;42.676;23.268;2023-08-07T05:38:17;2.70;;;2.50;;
11877;SDS011;5998;42.676;23.268;2023-08-07T05:40:45;6.57;;;2.57;;
11877;SDS011;5998;42.676;23.268;2023-08-07T05:43:12;3.43;;;3.13;;
11877;SDS011;5998;42.676;23.268;2023-08-07T05:45:38;3.53;;;2.67;;
11877;SDS011;5998;42.676;23.268;2023-08-07T05:48:06;3.57;;;2.80;;
11877;SDS011;5998;42.676;23.268;2023-08-07T05:50:34;2.50;;;2.30;;
11877;SDS011;5998;42.676;23.268;2023-08-07T05:53:00;3.33;;;3.00;;
11877;SDS011;5998;42.676;23.268;2023-08-07T05:55:27;4.43;;;2.93;;
11877;SDS011;5998;42.676;23.268;2023-08-07T05:57:56;4.00;;;2.90;;
11877;SDS011;5998;42.676;23.268;2023-08-07T06:00:22;2.83;;;2.63;;
11877;SDS011;5998;42.676;23.268;2023-08-07T06:02:48;3.10;;;2.90;;
11877;SDS011;5998;42.676;23.268;2023-08-07T06:05:15;2.57;;;2.37;;
11877;SDS011;5998;42.676;23.268;2023-08-07T06:07:41;3.67;;;2.70;;
11877;SDS011;5998;42.676;23.268;2023-08-07T06:10:08;3.73;;;2.43;;
11877;SDS011;5998;42.676;23.268;2023-08-07T06:12:35;2.87;;;2.53;;
11877;SDS011;5998;42.676;23.268;2023-08-07T06:15:03;3.40;;;2.90;;
11877;SDS011;5998;42.676;23.268;2023-08-07T06:17:29;2.90;;;2.70;;
11877;SDS011;5998;42.676;23.268;2023-08-07T06:19:56;3.83;;;2.70;;
11877;SDS011;5998;42.676;23.268;2023-08-07T06:22:22;5.43;;;3.10;;
11877;SDS011;5998;42.676;23.268;2023-08-07T06:24:49;2.70;;;2.50;;
11877;SDS011;5998;42.676;23.268;2023-08-07T06:27:15;7.73;;;2.60;;
11877;SDS011;5998;42.676;23.268;2023-08-07T06:29:41;2.30;;;2.20;;
11877;SDS011;5998;42.676;23.268;2023-08-07T06:32:09;3.03;;;2.83;;
11877;SDS011;5998;42.676;23.268;2023-08-07T06:34:36;3.00;;;2.40;;
11877;SDS011;5998;42.676;23.268;2023-08-07T06:37:03;3.77;;;2.47;;
11877;SDS011;5998;42.676;23.268;2023-08-07T06:39:30;3.73;;;2.40;;
11877;SDS011;5998;42.676;23.268;2023-08-07T06:41:57;1.70;;;1.60;;
11877;SDS011;5998;42.676;23.268;2023-08-07T06:44:25;2.00;;;1.90;;
11877;SDS011;5998;42.676;23.268;2023-08-07T06:46:51;1.90;;;1.80;;
11877;SDS011;5998;42.676;23.268;2023-08-07T06:49:19;1.63;;;1.53;;
11877;SDS011;5998;42.676;23.268;2023-08-07T06:51:46;1.60;;;1.50;;
11877;SDS011;5998;42.676;23.268;2023-08-07T06:54:12;2.17;;;1.53;;
11877;SDS011;5998;42.676;23.268;2023-08-07T06:56:39;1.50;;;1.40;;
11877;SDS011;5998;42.676;23.268;2023-08-07T06:59:07;1.57;;;1.47;;
11877;SDS011;5998;42.676;23.268;2023-08-07T07:01:33;1.70;;;1.50;;
11877;SDS011;5998;42.676;23.268;2023-08-07T07:04:00;2.83;;;1.80;;
11877;SDS011;5998;42.676;23.268;2023-08-07T07:06:27;1.83;;;1.63;;
11877;SDS011;5998;42.676;23.268;2023-08-07T07:08:54;1.60;;;1.50;;
11877;SDS011;5998;42.676;23.268;2023-08-07T07:11:20;1.70;;;1.60;;
11877;SDS011;5998;42.676;23.268;2023-08-07T07:13:49;1.80;;;1.67;;
11877;SDS011;5998;42.676;23.268;2023-08-07T07:16:16;1.70;;;1.60;;
11877;SDS011;5998;42.676;23.268;2023-08-07T07:18:43;1.57;;;1.47;;
11877;SDS011;5998;42.676;23.268;2023-08-07T07:21:09;1.43;;;1.30;;
11877;SDS011;5998;42.676;23.268;2023-08-07T07:23:37;1.43;;;1.20;;
11877;SDS011;5998;42.676;23.268;2023-08-07T07:26:04;1.40;;;1.30;;
11877;SDS011;5998;42.676;23.268;2023-08-07T07:28:30;2.27;;;1.87;;
11877;SDS011;5998;42.676;23.268;2023-08-07T07:30:56;2.30;;;1.50;;
11877;SDS011;5998;42.676;23.268;2023-08-07T07:33:23;2.20;;;1.50;;
11877;SDS011;5998;42.676;23.268;2023-08-07T07:35:49;1.40;;;1.30;;
11877;SDS011;5998;42.676;23.268;2023-08-07T07:38:16;1.60;;;1.50;;
11877;SDS011;5998;42.676;23.268;2023-08-07T07:40:43;1.50;;;1.40;;
11877;SDS011;5998;42.676;23.268;2023-08-07T07:43:10;3.03;;;1.50;;
11877;SDS011;5998;42.676;23.268;2023-08-07T07:45:37;1.50;;;1.40;;
11877;SDS011;5998;42.676;23.268;2023-08-07T07:48:03;4.27;;;1.70;;
11877;SDS011;5998;42.676;23.268;2023-08-07T07:50:31;1.70;;;1.60;;
11877;SDS011;5998;42.676;23.268;2023-08-07T07:52:57;1.77;;;1.43;;
11877;SDS011;5998;42.676;23.268;2023-08-07T07:55:24;1.40;;;1.30;;
11877;SDS011;5998;42.676;23.268;2023-08-07T07:57:52;2.63;;;1.60;;
11877;SDS011;5998;42.676;23.268;2023-08-07T08:00:18;1.73;;;1.30;;
11877;SDS011;5998;42.676;23.268;2023-08-07T08:02:45;2.20;;;1.40;;
11877;SDS011;5998;42.676;23.268;2023-08-07T08:05:11;1.40;;;1.23;;
11877;SDS011;5998;42.676;23.268;2023-08-07T08:07:38;1.70;;;1.60;;
11877;SDS011;5998;42.676;23.268;2023-08-07T08:10:06;1.60;;;1.40;;
11877;SDS011;5998;42.676;23.268;2023-08-07T08:12:32;1.73;;;1.47;;
11877;SDS011;5998;42.676;23.268;2023-08-07T08:15:00;1.47;;;1.37;;
11877;SDS011;5998;42.676;23.268;2023-08-07T08:17:26;4.13;;;1.70;;
11877;SDS011;5998;42.676;23.268;2023-08-07T08:19:53;2.10;;;1.50;;
11877;SDS011;5998;42.676;23.268;2023-08-07T08:22:19;1.40;;;1.40;;
11877;SDS011;5998;42.676;23.268;2023-08-07T08:24:46;1.77;;;1.67;;
11877;SDS011;5998;42.676;23.268;2023-08-07T08:27:13;1.77;;;1.63;;
11877;SDS011;5998;42.676;23.268;2023-08-07T08:29:40;1.43;;;1.33;;
11877;SDS011;5998;42.676;23.268;2023-08-07T08:32:09;1.70;;;1.60;;
11877;SDS011;5998;42.676;23.268;2023-08-07T08:34:35;4.57;;;1.57;;
11877;SDS011;5998;42.676;23.268;2023-08-07T08:37:02;1.60;;;1.50;;
11877;SDS011;5998;42.676;23.268;2023-08-07T08:39:30;1.73;;;1.63;;
11877;SDS011;5998;42.676;23.268;2023-08-07T08:41:57;2.10;;;1.50;;
11877;SDS011;5998;42.676;23.268;2023-08-07T08:44:24;1.50;;;1.40;;
11877;SDS011;5998;42.676;23.268;2023-08-07T08:46:51;2.23;;;1.57;;
11877;SDS011;5998;42.676;23.268;2023-08-07T08:49:22;3.87;;;1.90;;
11877;SDS011;5998;42.676;23.268;2023-08-07T08:51:49;2.87;;;1.80;;
11877;SDS011;5998;42.676;23.268;2023-08-07T08:54:16;2.23;;;1.80;;
11877;SDS011;5998;42.676;23.268;2023-08-07T08:56:42;3.00;;;1.50;;
11877;SDS011;5998;42.676;23.268;2023-08-07T08:59:10;3.87;;;1.70;;
11877;SDS011;5998;42.676;23.268;2023-08-07T09:01:36;2.50;;;1.43;;
11877;SDS011;5998;42.676;23.268;2023-08-07T09:04:03;1.50;;;1.40;;
11877;SDS011;5998;42.676;23.268;2023-08-07T09:06:32;1.90;;;1.50;;
11877;SDS011;5998;42.676;23.268;2023-08-07T09:08:59;3.73;;;1.50;;
11877;SDS011;5998;42.676;23.268;2023-08-07T09:11:26;1.50;;;1.40;;
11877;SDS011;5998;42.676;23.268;2023-08-07T09:13:54;1.60;;;1.50;;
11877;SDS011;5998;42.676;23.268;2023-08-07T09:16:21;1.97;;;1.60;;
11877;SDS011;5998;42.676;23.268;2023-08-07T09:18:50;1.50;;;1.37;;
11877;SDS011;5998;42.676;23.268;2023-08-07T09:21:16;1.67;;;1.57;;
11877;SDS011;5998;42.676;23.268;2023-08-07T09:23:45;1.70;;;1.60;;
11877;SDS011;5998;42.676;23.268;2023-08-07T09:26:11;2.30;;;1.50;;
11877;SDS011;5998;42.676;23.268;2023-08-07T09:28:38;1.63;;;1.40;;
11877;SDS011;5998;42.676;23.268;2023-08-07T09:31:05;1.53;;;1.43;;
11877;SDS011;5998;42.676;23.268;2023-08-07T09:33:33;1.83;;;1.50;;
11877;SDS011;5998;42.676;23.268;2023-08-07T09:36:00;1.67;;;1.57;;
11877;SDS011;5998;42.676;23.268;2023-08-07T09:38:27;3.93;;;1.80;;
11877;SDS011;5998;42.676;23.268;2023-08-07T09:40:58;1.87;;;1.70;;
11877;SDS011;5998;42.676;23.268;2023-08-07T09:43:24;1.47;;;1.47;;
11877;SDS011;5998;42.676;23.268;2023-08-07T09:45:51;1.60;;;1.50;;
11877;SDS011;5998;42.676;23.268;2023-08-07T09:48:22;1.53;;;1.43;;
11877;SDS011;5998;42.676;23.268;2023-08-07T09:50:49;1.70;;;1.60;;
11877;SDS011;5998;42.676;23.268;2023-08-07T09:53:15;1.50;;;1.40;;
11877;SDS011;5998;42.676;23.268;2023-08-07T09:55:41;1.87;;;1.50;;
11877;SDS011;5998;42.676;23.268;2023-08-07T09:58:09;3.10;;;1.70;;
11877;SDS011;5998;42.676;23.268;2023-08-07T10:00:38;2.03;;;1.47;;
11877;SDS011;5998;42.676;23.268;2023-08-07T10:03:06;1.97;;;1.60;;
11877;SDS011;5998;42.676;23.268;2023-08-07T10:05:33;2.10;;;1.60;;
11877;SDS011;5998;42.676;23.268;2023-08-07T10:07:59;1.80;;;1.70;;
11877;SDS011;5998;42.676;23.268;2023-08-07T10:10:26;1.77;;;1.50;;
11877;SDS011;5998;42.676;23.268;2023-08-07T10:12:52;1.73;;;1.40;;
11877;SDS011;5998;42.676;23.268;2023-08-07T10:15:21;3.70;;;1.73;;
11877;SDS011;5998;42.676;23.268;2023-08-07T10:17:47;1.40;;;1.40;;
11877;SDS011;5998;42.676;23.268;2023-08-07T10:20:13;1.40;;;1.40;;
11877;SDS011;5998;42.676;23.268;2023-08-07T10:22:40;2.63;;;1.63;;
11877;SDS011;5998;42.676;23.268;2023-08-07T10:25:07;1.93;;;1.57;;
11877;SDS011;5998;42.676;23.268;2023-08-07T10:27:34;2.70;;;1.83;;
11877;SDS011;5998;42.676;23.268;2023-08-07T10:30:02;1.73;;;1.63;;
11877;SDS011;5998;42.676;23.268;2023-08-07T10:32:32;1.60;;;1.50;;
11877;SDS011;5998;42.676;23.268;2023-08-07T10:34:59;2.87;;;1.60;;
11877;SDS011;5998;42.676;23.268;2023-08-07T10:37:32;1.50;;;1.40;;
11877;SDS011;5998;42.676;23.268;2023-08-07T10:40:03;3.90;;;2.00;;
11877;SDS011;5998;42.676;23.268;2023-08-07T10:42:32;7.13;;;1.80;;
11877;SDS011;5998;42.676;23.268;2023-08-07T10:45:00;2.17;;;1.67;;
11877;SDS011;5998;42.676;23.268;2023-08-07T10:47:34;3.07;;;1.60;;
11877;SDS011;5998;42.676;23.268;2023-08-07T10:50:01;1.77;;;1.67;;
11877;SDS011;5998;42.676;23.268;2023-08-07T10:52:27;3.33;;;1.43;;
11877;SDS011;5998;42.676;23.268;2023-08-07T10:54:53;1.63;;;1.53;;
11877;SDS011;5998;42.676;23.268;2023-08-07T10:57:20;1.50;;;1.40;;
11877;SDS011;5998;42.676;23.268;2023-08-07T10:59:51;1.47;;;1.47;;
11877;SDS011;5998;42.676;23.268;2023-08-07T11:02:30;1.90;;;1.60;;
11877;SDS011;5998;42.676;23.268;2023-08-07T11:04:59;1.60;;;1.50;;
11877;SDS011;5998;42.676;23.268;2023-08-07T11:07:26;1.53;;;1.43;;
11877;SDS011;5998;42.676;23.268;2023-08-07T11:09:53;1.50;;;1.30;;
11877;SDS011;5998;42.676;23.268;2023-08-07T11:12:19;1.93;;;1.70;;
11877;SDS011;5998;42.676;23.268;2023-08-07T11:14:46;2.37;;;1.60;;
11877;SDS011;5998;42.676;23.268;2023-08-07T11:17:12;2.20;;;1.40;;
11877;SDS011;5998;42.676;23.268;2023-08-07T11:19:39;2.13;;;1.70;;
11877;SDS011;5998;42.676;23.268;2023-08-07T11:22:07;1.63;;;1.53;;
11877;SDS011;5998;42.676;23.268;2023-08-07T11:24:33;3.57;;;1.60;;
11877;SDS011;5998;42.676;23.268;2023-08-07T11:27:00;1.73;;;1.40;;
11877;SDS011;5998;42.676;23.268;2023-08-07T11:29:26;6.03;;;1.70;;
11877;SDS011;5998;42.676;23.268;2023-08-07T11:31:53;5.50;;;1.75;;
11877;SDS011;5998;42.676;23.268;2023-08-07T11:34:20;4.80;;;1.75;;
11877;SDS011;5998;42.676;23.268;2023-08-07T11:36:47;5.13;;;1.88;;
11877;SDS011;5998;42.676;23.268;2023-08-07T11:39:15;3.25;;;1.70;;
11877;SDS011;5998;42.676;23.268;2023-08-07T11:41:42;1.53;;;1.43;;
11877;SDS011;5998;42.676;23.268;2023-08-07T11:44:09;1.90;;;1.70;;
11877;SDS011;5998;42.676;23.268;2023-08-07T11:46:35;1.57;;;1.47;;
11877;SDS011;5998;42.676;23.268;2023-08-07T11:49:02;3.73;;;1.80;;
11877;SDS011;5998;42.676;23.268;2023-08-07T11:51:29;5.67;;;1.80;;
11877;SDS011;5998;42.676;23.268;2023-08-07T11:53:55;3.70;;;1.90;;
11877;SDS011;5998;42.676;23.268;2023-08-07T11:56:25;4.10;;;1.60;;
11877;SDS011;5998;42.676;23.268;2023-08-07T11:58:52;1.50;;;1.40;;
11877;SDS011;5998;42.676;23.268;2023-08-07T12:01:20;6.03;;;1.70;;
11877;SDS011;5998;42.676;23.268;2023-08-07T12:03:50;2.50;;;2.00;;
11877;SDS011;5998;42.676;23.268;2023-08-07T12:06:16;1.80;;;1.70;;
11877;SDS011;5998;42.676;23.268;2023-08-07T12:08:42;1.77;;;1.50;;
11877;SDS011;5998;42.676;23.268;2023-08-07T12:11:09;2.87;;;1.67;;
11877;SDS011;5998;42.676;23.268;2023-08-07T12:13:38;1.77;;;1.37;;
11877;SDS011;5998;42.676;23.268;2023-08-07T12:16:04;1.97;;;1.87;;
11877;SDS011;5998;42.676;23.268;2023-08-07T12:18:31;4.73;;;2.10;;
11877;SDS011;5998;42.676;23.268;2023-08-07T12:20:58;1.97;;;1.70;;
11877;SDS011;5998;42.676;23.268;2023-08-07T12:23:25;2.07;;;1.90;;
11877;SDS011;5998;42.676;23.268;2023-08-07T12:25:51;5.97;;;4.17;;
11877;SDS011;5998;42.676;23.268;2023-08-07T12:28:18;4.23;;;2.53;;
11877;SDS011;5998;42.676;23.268;2023-08-07T12:30:47;4.50;;;1.90;;
11877;SDS011;5998;42.676;23.268;2023-08-07T12:33:13;1.70;;;1.60;;
11877;SDS011;5998;42.676;23.268;2023-08-07T12:35:40;3.37;;;1.70;;
11877;SDS011;5998;42.676;23.268;2023-08-07T12:38:06;4.40;;;1.90;;
11877;SDS011;5998;42.676;23.268;2023-08-07T12:40:34;2.67;;;1.70;;
11877;SDS011;5998;42.676;23.268;2023-08-07T12:43:01;23.17;;;2.90;;
11877;SDS011;5998;42.676;23.268;2023-08-07T12:45:27;4.80;;;1.80;;
11877;SDS011;5998;42.676;23.268;2023-08-07T12:47:55;5.47;;;1.97;;
11877;SDS011;5998;42.676;23.268;2023-08-07T12:50:22;4.37;;;1.60;;
11877;SDS011;5998;42.676;23.268;2023-08-07T12:52:48;1.80;;;1.70;;
11877;SDS011;5998;42.676;23.268;2023-08-07T12:55:15;1.83;;;1.73;;
11877;SDS011;5998;42.676;23.268;2023-08-07T12:57:41;5.60;;;2.53;;
11877;SDS011;5998;42.676;23.268;2023-08-07T13:00:08;2.80;;;1.70;;
11877;SDS011;5998;42.676;23.268;2023-08-07T13:02:37;2.40;;;1.70;;
11877;SDS011;5998;42.676;23.268;2023-08-07T13:05:05;2.03;;;1.60;;
11877;SDS011;5998;42.676;23.268;2023-08-07T13:07:33;4.67;;;1.70;;
11877;SDS011;5998;42.676;23.268;2023-08-07T13:10:00;3.53;;;1.67;;
11877;SDS011;5998;42.676;23.268;2023-08-07T13:12:26;5.30;;;2.00;;
11877;SDS011;5998;42.676;23.268;2023-08-07T13:14:53;5.17;;;2.17;;
11877;SDS011;5998;42.676;23.268;2023-08-07T13:17:19;1.90;;;1.80;;
11877;SDS011;5998;42.676;23.268;2023-08-07T13:19:45;4.40;;;1.70;;
11877;SDS011;5998;42.676;23.268;2023-08-07T13:22:13;5.97;;;1.93;;
11877;SDS011;5998;42.676;23.268;2023-08-07T13:24:40;3.70;;;1.90;;
11877;SDS011;5998;42.676;23.268;2023-08-07T13:27:06;3.13;;;1.80;;
11877;SDS011;5998;42.676;23.268;2023-08-07T13:29:32;4.73;;;1.80;;
11877;SDS011;5998;42.676;23.268;2023-08-07T13:31:59;8.30;;;2.27;;
11877;SDS011;5998;42.676;23.268;2023-08-07T13:34:28;3.63;;;2.07;;
11877;SDS011;5998;42.676;23.268;2023-08-07T13:36:55;4.57;;;1.47;;
11877;SDS011;5998;42.676;23.268;2023-08-07T13:39:22;2.80;;;1.80;;
11877;SDS011;5998;42.676;23.268;2023-08-07T13:41:49;3.17;;;1.70;;
11877;SDS011;5998;42.676;23.268;2023-08-07T13:44:15;4.73;;;1.90;;
11877;SDS011;5998;42.676;23.268;2023-08-07T13:46:42;4.67;;;1.83;;
11877;SDS011;5998;42.676;23.268;2023-08-07T13:49:09;2.03;;;1.60;;
11877;SDS011;5998;42.676;23.268;2023-08-07T13:51:35;2.93;;;1.80;;
11877;SDS011;5998;42.676;23.268;2023-08-07T13:54:02;1.90;;;1.77;;
11877;SDS011;5998;42.676;23.268;2023-08-07T13:56:30;2.67;;;1.80;;
11877;SDS011;5998;42.676;23.268;2023-08-07T13:58:56;2.00;;;1.90;;
11877;SDS011;5998;42.676;23.268;2023-08-07T14:01:23;3.90;;;1.80;;
11877;SDS011;5998;42.676;23.268;2023-08-07T14:03:49;3.23;;;1.83;;
11877;SDS011;5998;42.676;23.268;2023-08-07T14:06:15;1.60;;;1.50;;
11877;SDS011;5998;42.676;23.268;2023-08-07T14:08:42;2.33;;;2.00;;
11877;SDS011;5998;42.676;23.268;2023-08-07T14:11:08;3.80;;;2.10;;
11877;SDS011;5998;42.676;23.268;2023-08-07T14:13:36;2.03;;;1.73;;
11877;SDS011;5998;42.676;23.268;2023-08-07T14:16:02;2.37;;;1.77;;
11877;SDS011;5998;42.676;23.268;2023-08-07T14:18:29;2.00;;;1.90;;
11877;SDS011;5998;42.676;23.268;2023-08-07T14:20:55;3.70;;;1.87;;
11877;SDS011;5998;42.676;23.268;2023-08-07T14:23:22;4.03;;;1.90;;
11877;SDS011;5998;42.676;23.268;2023-08-07T14:25:48;3.80;;;2.03;;
11877;SDS011;5998;42.676;23.268;2023-08-07T14:28:16;2.00;;;1.80;;
11877;SDS011;5998;42.676;23.268;2023-08-07T14:30:43;4.90;;;1.97;;
11877;SDS011;5998;42.676;23.268;2023-08-07T14:33:10;3.17;;;2.20;;
11877;SDS011;5998;42.676;23.268;2023-08-07T14:35:38;1.90;;;1.80;;
11877;SDS011;5998;42.676;23.268;2023-08-07T14:38:04;2.07;;;1.90;;
11877;SDS011;5998;42.676;23.268;2023-08-07T14:40:31;3.13;;;1.60;;
11877;SDS011;5998;42.676;23.268;2023-08-07T14:42:57;2.27;;;2.00;;
11877;SDS011;5998;42.676;23.268;2023-08-07T14:45:24;3.17;;;1.70;;